sensor_id;sensor_type;location;lat;lon;timestamp;P1;durP1;ratioP1;P2;durP2;ratioP2
6356;SDS011;3211;53.452;-2.264;2023-04-15T00:01:38;12.60;;;8.63;;
6356;SDS011;3211;53.452;-2.264;2023-04-15T00:04:10;9.10;;;8.17;;
6356;SDS011;3211;53.452;-2.264;2023-04-15T00:06:37;9.87;;;7.70;;
6356;SDS011;3211;53.452;-2.264;2023-04-15T00:09:07;9.47;;;8.47;;
6356;SDS011;3211;53.452;-2.264;2023-04-15T00:11:34;12.67;;;8.80;;
6356;SDS011;3211;53.452;-2.264;2023-04-15T00:14:00;11.43;;;9.53;;
6356;SDS011;3211;53.452;-2.264;2023-04-15T00:16:28;10.40;;;8.17;;
6356;SDS011;3211;53.452;-2.264;2023-04-15T00:18:55;11.40;;;9.20;;
6356;SDS011;3211;53.452;-2.264;2023-04-15T00:21:43;11.23;;;8.60;;
6356;SDS011;3211;53.452;-2.264;2023-04-15T00:24:10;12.90;;;9.40;;
6356;SDS011;3211;53.452;-2.264;2023-04-15T00:26:37;10.40;;;8.97;;
6356;SDS011;3211;53.452;-2.264;2023-04-15T00:29:07;12.87;;;9.67;;
6356;SDS011;3211;53.452;-2.264;2023-04-15T00:31:34;11.80;;;9.57;;
6356;SDS011;3211;53.452;-2.264;2023-04-15T00:34:05;10.80;;;9.00;;
6356;SDS011;3211;53.452;-2.264;2023-04-15T00:36:32;14.10;;;9.17;;
6356;SDS011;3211;53.452;-2.264;2023-04-15T00:39:01;12.23;;;9.50;;
6356;SDS011;3211;53.452;-2.264;2023-04-15T00:41:47;12.23;;;9.67;;
6356;SDS011;3211;53.452;-2.264;2023-04-15T00:44:15;16.40;;;9.77;;
6356;SDS011;3211;53.452;-2.264;2023-04-15T00:46:42;9.87;;;8.83;;
6356;SDS011;3211;53.452;-2.264;2023-04-15T00:49:13;13.40;;;9.87;;
6356;SDS011;3211;53.452;-2.264;2023-04-15T00:51:40;12.17;;;9.37;;
6356;SDS011;3211;53.452;-2.264;2023-04-15T00:54:11;12.03;;;9.30;;
6356;SDS011;3211;53.452;-2.264;2023-04-15T00:56:38;12.67;;;9.80;;
6356;SDS011;3211;53.452;-2.264;2023-04-15T00:59:08;12.50;;;9.90;;
6356;SDS011;3211;53.452;-2.264;2023-04-15T01:01:36;14.03;;;10.07;;
6356;SDS011;3211;53.452;-2.264;2023-04-15T01:04:06;13.20;;;10.70;;
6356;SDS011;3211;53.452;-2.264;2023-04-15T01:06:34;11.53;;;9.43;;
6356;SDS011;3211;53.452;-2.264;2023-04-15T01:09:03;11.97;;;9.87;;
6356;SDS011;3211;53.452;-2.264;2023-04-15T01:11:32;10.10;;;8.20;;
6356;SDS011;3211;53.452;-2.264;2023-04-15T01:13:59;10.53;;;9.10;;
6356;SDS011;3211;53.452;-2.264;2023-04-15T01:16:26;11.90;;;8.73;;
6356;SDS011;3211;53.452;-2.264;2023-04-15T01:18:53;13.03;;;9.63;;
6356;SDS011;3211;53.452;-2.264;2023-04-15T01:21:39;12.10;;;9.63;;
6356;SDS011;3211;53.452;-2.264;2023-04-15T01:24:07;13.83;;;10.37;;
6356;SDS011;3211;53.452;-2.264;2023-04-15T01:26:37;12.13;;;9.67;;
6356;SDS011;3211;53.452;-2.264;2023-04-15T01:29:07;10.57;;;9.43;;
6356;SDS011;3211;53.452;-2.264;2023-04-15T01:31:34;10.40;;;9.27;;
6356;SDS011;3211;53.452;-2.264;2023-04-15T01:34:04;11.43;;;9.30;;
6356;SDS011;3211;53.452;-2.264;2023-04-15T01:36:31;11.63;;;10.03;;
6356;SDS011;3211;53.452;-2.264;2023-04-15T01:39:02;13.20;;;10.13;;
6356;SDS011;3211;53.452;-2.264;2023-04-15T01:41:29;14.27;;;10.30;;
6356;SDS011;3211;53.452;-2.264;2023-04-15T01:43:58;12.07;;;10.37;;
6356;SDS011;3211;53.452;-2.264;2023-04-15T01:46:44;13.30;;;10.40;;
6356;SDS011;3211;53.452;-2.264;2023-04-15T01:49:12;14.87;;;10.33;;
6356;SDS011;3211;53.452;-2.264;2023-04-15T01:51:39;11.50;;;9.80;;
6356;SDS011;3211;53.452;-2.264;2023-04-15T01:54:09;12.60;;;9.20;;
6356;SDS011;3211;53.452;-2.264;2023-04-15T01:56:36;13.07;;;10.20;;
6356;SDS011;3211;53.452;-2.264;2023-04-15T01:59:07;12.07;;;10.03;;
6356;SDS011;3211;53.452;-2.264;2023-04-15T02:01:34;13.17;;;10.47;;
6356;SDS011;3211;53.452;-2.264;2023-04-15T02:04:03;12.50;;;10.20;;
6356;SDS011;3211;53.452;-2.264;2023-04-15T02:06:31;13.33;;;10.63;;
6356;SDS011;3211;53.452;-2.264;2023-04-15T02:09:00;14.20;;;10.80;;
6356;SDS011;3211;53.452;-2.264;2023-04-15T02:11:28;13.40;;;10.80;;
6356;SDS011;3211;53.452;-2.264;2023-04-15T02:13:55;14.10;;;10.17;;
6356;SDS011;3211;53.452;-2.264;2023-04-15T02:16:23;13.00;;;10.33;;
6356;SDS011;3211;53.452;-2.264;2023-04-15T02:18:50;13.07;;;10.40;;
6356;SDS011;3211;53.452;-2.264;2023-04-15T02:21:36;11.77;;;9.50;;
6356;SDS011;3211;53.452;-2.264;2023-04-15T02:24:04;11.80;;;10.30;;
6356;SDS011;3211;53.452;-2.264;2023-04-15T02:26:31;13.20;;;10.20;;
6356;SDS011;3211;53.452;-2.264;2023-04-15T02:29:01;12.17;;;10.10;;
6356;SDS011;3211;53.452;-2.264;2023-04-15T02:31:29;13.57;;;10.57;;
6356;SDS011;3211;53.452;-2.264;2023-04-15T02:34:00;12.00;;;9.60;;
6356;SDS011;3211;53.452;-2.264;2023-04-15T02:36:28;14.50;;;11.10;;
6356;SDS011;3211;53.452;-2.264;2023-04-15T02:38:55;15.20;;;11.20;;
6356;SDS011;3211;53.452;-2.264;2023-04-15T02:41:22;13.70;;;10.10;;
6356;SDS011;3211;53.452;-2.264;2023-04-15T02:43:54;17.30;;;11.00;;
6356;SDS011;3211;53.452;-2.264;2023-04-15T02:46:21;13.63;;;10.93;;
6356;SDS011;3211;53.452;-2.264;2023-04-15T02:48:53;13.30;;;10.93;;
6356;SDS011;3211;53.452;-2.264;2023-04-15T02:51:20;15.87;;;11.60;;
6356;SDS011;3211;53.452;-2.264;2023-04-15T02:53:50;15.33;;;10.83;;
6356;SDS011;3211;53.452;-2.264;2023-04-15T02:56:17;16.90;;;11.27;;
6356;SDS011;3211;53.452;-2.264;2023-04-15T02:58:47;13.43;;;10.70;;
6356;SDS011;3211;53.452;-2.264;2023-04-15T03:01:14;12.67;;;9.40;;
6356;SDS011;3211;53.452;-2.264;2023-04-15T03:03:44;14.63;;;10.47;;
6356;SDS011;3211;53.452;-2.264;2023-04-15T03:06:12;12.67;;;10.10;;
6356;SDS011;3211;53.452;-2.264;2023-04-15T03:08:42;12.93;;;9.83;;
6356;SDS011;3211;53.452;-2.264;2023-04-15T03:11:09;13.27;;;10.70;;
6356;SDS011;3211;53.452;-2.264;2023-04-15T03:13:39;13.87;;;10.60;;
6356;SDS011;3211;53.452;-2.264;2023-04-15T03:16:07;15.37;;;11.87;;
6356;SDS011;3211;53.452;-2.264;2023-04-15T03:18:37;16.33;;;11.43;;
6356;SDS011;3211;53.452;-2.264;2023-04-15T03:21:04;14.90;;;10.67;;
6356;SDS011;3211;53.452;-2.264;2023-04-15T03:23:32;14.70;;;10.37;;
6356;SDS011;3211;53.452;-2.264;2023-04-15T03:26:25;14.00;;;11.07;;
6356;SDS011;3211;53.452;-2.264;2023-04-15T03:28:53;14.43;;;10.53;;
6356;SDS011;3211;53.452;-2.264;2023-04-15T03:31:20;13.73;;;10.33;;
6356;SDS011;3211;53.452;-2.264;2023-04-15T03:33:51;14.43;;;10.67;;
6356;SDS011;3211;53.452;-2.264;2023-04-15T03:36:17;16.20;;;12.07;;
6356;SDS011;3211;53.452;-2.264;2023-04-15T03:38:49;15.30;;;11.47;;
6356;SDS011;3211;53.452;-2.264;2023-04-15T03:41:16;14.60;;;11.50;;
6356;SDS011;3211;53.452;-2.264;2023-04-15T03:43:45;14.73;;;10.97;;
6356;SDS011;3211;53.452;-2.264;2023-04-15T03:46:12;14.53;;;11.23;;
6356;SDS011;3211;53.452;-2.264;2023-04-15T03:48:42;16.67;;;11.60;;
6356;SDS011;3211;53.452;-2.264;2023-04-15T03:51:09;14.23;;;11.17;;
6356;SDS011;3211;53.452;-2.264;2023-04-15T03:53:39;14.77;;;11.37;;
6356;SDS011;3211;53.452;-2.264;2023-04-15T03:56:07;18.40;;;11.83;;
6356;SDS011;3211;53.452;-2.264;2023-04-15T03:58:37;15.60;;;10.77;;
6356;SDS011;3211;53.452;-2.264;2023-04-15T04:01:04;17.83;;;11.37;;
6356;SDS011;3211;53.452;-2.264;2023-04-15T04:03:31;15.73;;;11.97;;
6356;SDS011;3211;53.452;-2.264;2023-04-15T04:06:17;15.33;;;11.40;;
6356;SDS011;3211;53.452;-2.264;2023-04-15T04:08:44;16.03;;;11.37;;
6356;SDS011;3211;53.452;-2.264;2023-04-15T04:11:12;15.43;;;11.20;;
6356;SDS011;3211;53.452;-2.264;2023-04-15T04:13:41;13.50;;;10.70;;
6356;SDS011;3211;53.452;-2.264;2023-04-15T04:16:08;13.53;;;10.03;;
6356;SDS011;3211;53.452;-2.264;2023-04-15T04:18:38;14.30;;;11.00;;
6356;SDS011;3211;53.452;-2.264;2023-04-15T04:21:05;13.97;;;11.23;;
6356;SDS011;3211;53.452;-2.264;2023-04-15T04:23:35;14.90;;;10.93;;
6356;SDS011;3211;53.452;-2.264;2023-04-15T04:26:02;13.70;;;10.70;;
6356;SDS011;3211;53.452;-2.264;2023-04-15T04:28:30;13.87;;;10.10;;
6356;SDS011;3211;53.452;-2.264;2023-04-15T04:30:57;17.60;;;12.33;;
6356;SDS011;3211;53.452;-2.264;2023-04-15T04:33:24;15.20;;;11.00;;
6356;SDS011;3211;53.452;-2.264;2023-04-15T04:36:10;12.87;;;10.43;;
6356;SDS011;3211;53.452;-2.264;2023-04-15T04:38:37;15.30;;;10.87;;
6356;SDS011;3211;53.452;-2.264;2023-04-15T04:41:04;14.33;;;10.90;;
6356;SDS011;3211;53.452;-2.264;2023-04-15T04:43:35;15.20;;;11.97;;
6356;SDS011;3211;53.452;-2.264;2023-04-15T04:46:02;15.40;;;10.93;;
6356;SDS011;3211;53.452;-2.264;2023-04-15T04:48:29;15.03;;;10.53;;
6356;SDS011;3211;53.452;-2.264;2023-04-15T04:51:15;14.53;;;12.07;;
6356;SDS011;3211;53.452;-2.264;2023-04-15T04:53:43;16.47;;;11.60;;
6356;SDS011;3211;53.452;-2.264;2023-04-15T04:56:10;15.70;;;10.60;;
6356;SDS011;3211;53.452;-2.264;2023-04-15T04:58:41;14.40;;;10.47;;
6356;SDS011;3211;53.452;-2.264;2023-04-15T05:01:08;15.40;;;11.13;;
6356;SDS011;3211;53.452;-2.264;2023-04-15T05:03:38;18.13;;;11.50;;
6356;SDS011;3211;53.452;-2.264;2023-04-15T05:06:05;15.27;;;10.30;;
6356;SDS011;3211;53.452;-2.264;2023-04-15T05:08:35;13.00;;;10.20;;
6356;SDS011;3211;53.452;-2.264;2023-04-15T05:11:03;14.30;;;11.27;;
6356;SDS011;3211;53.452;-2.264;2023-04-15T05:13:33;13.27;;;10.60;;
6356;SDS011;3211;53.452;-2.264;2023-04-15T05:16:04;15.40;;;10.40;;
6356;SDS011;3211;53.452;-2.264;2023-04-15T05:18:32;13.13;;;10.30;;
6356;SDS011;3211;53.452;-2.264;2023-04-15T05:20:59;14.57;;;10.43;;
6356;SDS011;3211;53.452;-2.264;2023-04-15T05:23:27;11.93;;;9.70;;
6356;SDS011;3211;53.452;-2.264;2023-04-15T05:26:13;13.03;;;9.87;;
6356;SDS011;3211;53.452;-2.264;2023-04-15T05:28:40;14.57;;;10.53;;
6356;SDS011;3211;53.452;-2.264;2023-04-15T05:31:08;14.70;;;11.10;;
6356;SDS011;3211;53.452;-2.264;2023-04-15T05:33:36;12.90;;;10.13;;
6356;SDS011;3211;53.452;-2.264;2023-04-15T05:36:02;15.90;;;10.23;;
6356;SDS011;3211;53.452;-2.264;2023-04-15T05:38:30;15.03;;;11.53;;
6356;SDS011;3211;53.452;-2.264;2023-04-15T05:40:57;14.00;;;10.23;;
6356;SDS011;3211;53.452;-2.264;2023-04-15T05:43:24;13.97;;;10.20;;
6356;SDS011;3211;53.452;-2.264;2023-04-15T05:45:51;13.47;;;10.37;;
6356;SDS011;3211;53.452;-2.264;2023-04-15T05:48:20;15.00;;;10.80;;
6356;SDS011;3211;53.452;-2.264;2023-04-15T05:50:46;13.70;;;9.97;;
6356;SDS011;3211;53.452;-2.264;2023-04-15T05:53:13;16.60;;;11.37;;
6356;SDS011;3211;53.452;-2.264;2023-04-15T05:55:40;14.90;;;10.80;;
6356;SDS011;3211;53.452;-2.264;2023-04-15T05:58:07;11.90;;;9.70;;
6356;SDS011;3211;53.452;-2.264;2023-04-15T06:00:35;13.20;;;10.43;;
6356;SDS011;3211;53.452;-2.264;2023-04-15T06:03:03;14.43;;;11.33;;
6356;SDS011;3211;53.452;-2.264;2023-04-15T06:05:31;13.60;;;10.60;;
6356;SDS011;3211;53.452;-2.264;2023-04-15T06:07:58;14.00;;;10.40;;
6356;SDS011;3211;53.452;-2.264;2023-04-15T06:10:26;14.60;;;11.37;;
6356;SDS011;3211;53.452;-2.264;2023-04-15T06:12:53;18.33;;;12.13;;
6356;SDS011;3211;53.452;-2.264;2023-04-15T06:15:20;15.70;;;11.60;;
6356;SDS011;3211;53.452;-2.264;2023-04-15T06:17:47;18.43;;;11.60;;
6356;SDS011;3211;53.452;-2.264;2023-04-15T06:20:14;14.40;;;11.50;;
6356;SDS011;3211;53.452;-2.264;2023-04-15T06:22:42;15.07;;;11.83;;
6356;SDS011;3211;53.452;-2.264;2023-04-15T06:25:09;16.07;;;12.00;;
6356;SDS011;3211;53.452;-2.264;2023-04-15T06:27:36;13.40;;;10.17;;
6356;SDS011;3211;53.452;-2.264;2023-04-15T06:30:04;16.87;;;11.17;;
6356;SDS011;3211;53.452;-2.264;2023-04-15T06:32:31;16.40;;;12.30;;
6356;SDS011;3211;53.452;-2.264;2023-04-15T06:34:59;17.13;;;12.57;;
6356;SDS011;3211;53.452;-2.264;2023-04-15T06:37:26;13.83;;;10.63;;
6356;SDS011;3211;53.452;-2.264;2023-04-15T06:39:54;15.40;;;11.80;;
6356;SDS011;3211;53.452;-2.264;2023-04-15T06:42:21;15.57;;;11.30;;
6356;SDS011;3211;53.452;-2.264;2023-04-15T06:44:48;17.40;;;12.40;;
6356;SDS011;3211;53.452;-2.264;2023-04-15T06:47:15;14.40;;;10.97;;
6356;SDS011;3211;53.452;-2.264;2023-04-15T06:49:43;18.93;;;14.00;;
6356;SDS011;3211;53.452;-2.264;2023-04-15T06:52:10;20.80;;;13.77;;
6356;SDS011;3211;53.452;-2.264;2023-04-15T06:54:37;17.57;;;12.13;;
6356;SDS011;3211;53.452;-2.264;2023-04-15T06:57:06;17.23;;;13.37;;
6356;SDS011;3211;53.452;-2.264;2023-04-15T06:59:33;20.07;;;13.70;;
6356;SDS011;3211;53.452;-2.264;2023-04-15T07:02:00;16.97;;;12.40;;
6356;SDS011;3211;53.452;-2.264;2023-04-15T07:04:27;17.57;;;13.50;;
6356;SDS011;3211;53.452;-2.264;2023-04-15T07:06:54;17.07;;;13.33;;
6356;SDS011;3211;53.452;-2.264;2023-04-15T07:09:21;15.53;;;12.47;;
6356;SDS011;3211;53.452;-2.264;2023-04-15T07:11:48;16.93;;;14.00;;
6356;SDS011;3211;53.452;-2.264;2023-04-15T07:14:17;17.30;;;13.47;;
6356;SDS011;3211;53.452;-2.264;2023-04-15T07:16:44;19.17;;;13.27;;
6356;SDS011;3211;53.452;-2.264;2023-04-15T07:19:12;18.80;;;14.23;;
6356;SDS011;3211;53.452;-2.264;2023-04-15T07:21:39;15.97;;;12.47;;
6356;SDS011;3211;53.452;-2.264;2023-04-15T07:24:06;16.37;;;12.17;;
6356;SDS011;3211;53.452;-2.264;2023-04-15T07:26:34;18.83;;;12.23;;
6356;SDS011;3211;53.452;-2.264;2023-04-15T07:29:01;15.37;;;12.07;;
6356;SDS011;3211;53.452;-2.264;2023-04-15T07:31:29;17.60;;;12.67;;
6356;SDS011;3211;53.452;-2.264;2023-04-15T07:33:56;13.37;;;10.50;;
6356;SDS011;3211;53.452;-2.264;2023-04-15T07:36:23;14.80;;;10.87;;
6356;SDS011;3211;53.452;-2.264;2023-04-15T07:38:50;13.57;;;10.80;;
6356;SDS011;3211;53.452;-2.264;2023-04-15T07:41:17;17.83;;;11.47;;
6356;SDS011;3211;53.452;-2.264;2023-04-15T07:43:45;13.83;;;11.30;;
6356;SDS011;3211;53.452;-2.264;2023-04-15T07:46:12;11.93;;;10.00;;
6356;SDS011;3211;53.452;-2.264;2023-04-15T07:48:41;10.40;;;9.13;;
6356;SDS011;3211;53.452;-2.264;2023-04-15T07:51:08;11.40;;;9.60;;
6356;SDS011;3211;53.452;-2.264;2023-04-15T07:53:36;13.87;;;10.53;;
6356;SDS011;3211;53.452;-2.264;2023-04-15T07:56:04;10.00;;;8.40;;
6356;SDS011;3211;53.452;-2.264;2023-04-15T07:58:31;11.87;;;9.50;;
6356;SDS011;3211;53.452;-2.264;2023-04-15T08:00:58;13.00;;;8.90;;
6356;SDS011;3211;53.452;-2.264;2023-04-15T08:03:25;10.50;;;8.70;;
6356;SDS011;3211;53.452;-2.264;2023-04-15T08:05:53;11.30;;;8.80;;
6356;SDS011;3211;53.452;-2.264;2023-04-15T08:08:20;11.00;;;8.40;;
6356;SDS011;3211;53.452;-2.264;2023-04-15T08:10:47;10.73;;;8.10;;
6356;SDS011;3211;53.452;-2.264;2023-04-15T08:13:15;12.70;;;8.57;;
6356;SDS011;3211;53.452;-2.264;2023-04-15T08:15:41;8.93;;;7.90;;
6356;SDS011;3211;53.452;-2.264;2023-04-15T08:18:08;12.87;;;9.20;;
6356;SDS011;3211;53.452;-2.264;2023-04-15T08:20:36;10.57;;;8.50;;
6356;SDS011;3211;53.452;-2.264;2023-04-15T08:23:04;10.70;;;7.77;;
6356;SDS011;3211;53.452;-2.264;2023-04-15T08:25:31;13.17;;;8.10;;
6356;SDS011;3211;53.452;-2.264;2023-04-15T08:27:58;9.70;;;7.30;;
6356;SDS011;3211;53.452;-2.264;2023-04-15T08:30:29;8.63;;;7.50;;
6356;SDS011;3211;53.452;-2.264;2023-04-15T08:32:55;11.60;;;7.50;;
6356;SDS011;3211;53.452;-2.264;2023-04-15T08:35:22;9.43;;;7.60;;
6356;SDS011;3211;53.452;-2.264;2023-04-15T08:37:50;9.77;;;6.90;;
6356;SDS011;3211;53.452;-2.264;2023-04-15T08:40:18;11.10;;;6.97;;
6356;SDS011;3211;53.452;-2.264;2023-04-15T08:42:47;9.70;;;6.60;;
6356;SDS011;3211;53.452;-2.264;2023-04-15T08:45:17;7.20;;;6.33;;
6356;SDS011;3211;53.452;-2.264;2023-04-15T08:47:45;10.23;;;6.07;;
6356;SDS011;3211;53.452;-2.264;2023-04-15T08:50:15;11.07;;;5.57;;
6356;SDS011;3211;53.452;-2.264;2023-04-15T08:52:42;6.83;;;5.83;;
6356;SDS011;3211;53.452;-2.264;2023-04-15T08:55:09;7.23;;;5.80;;
6356;SDS011;3211;53.452;-2.264;2023-04-15T08:57:40;8.10;;;6.87;;
6356;SDS011;3211;53.452;-2.264;2023-04-15T09:00:07;6.70;;;5.87;;
6356;SDS011;3211;53.452;-2.264;2023-04-15T09:02:36;7.57;;;6.30;;
6356;SDS011;3211;53.452;-2.264;2023-04-15T09:05:04;11.90;;;6.60;;
6356;SDS011;3211;53.452;-2.264;2023-04-15T09:07:32;8.30;;;6.20;;
6356;SDS011;3211;53.452;-2.264;2023-04-15T09:09:59;7.60;;;6.37;;
6356;SDS011;3211;53.452;-2.264;2023-04-15T09:12:26;10.13;;;6.60;;
6356;SDS011;3211;53.452;-2.264;2023-04-15T09:14:55;7.77;;;6.20;;
6356;SDS011;3211;53.452;-2.264;2023-04-15T09:17:22;6.40;;;5.67;;
6356;SDS011;3211;53.452;-2.264;2023-04-15T09:19:52;5.90;;;5.10;;
6356;SDS011;3211;53.452;-2.264;2023-04-15T09:22:33;9.53;;;6.00;;
6356;SDS011;3211;53.452;-2.264;2023-04-15T09:25:02;6.73;;;6.03;;
6356;SDS011;3211;53.452;-2.264;2023-04-15T09:27:29;12.50;;;5.90;;
6356;SDS011;3211;53.452;-2.264;2023-04-15T09:29:57;6.80;;;5.80;;
6356;SDS011;3211;53.452;-2.264;2023-04-15T09:32:24;8.20;;;5.40;;
6356;SDS011;3211;53.452;-2.264;2023-04-15T09:34:51;9.30;;;6.03;;
6356;SDS011;3211;53.452;-2.264;2023-04-15T09:37:18;9.50;;;6.30;;
6356;SDS011;3211;53.452;-2.264;2023-04-15T09:40:00;7.50;;;5.37;;
6356;SDS011;3211;53.452;-2.264;2023-04-15T09:42:28;6.87;;;5.73;;
6356;SDS011;3211;53.452;-2.264;2023-04-15T09:45:08;6.90;;;5.03;;
6356;SDS011;3211;53.452;-2.264;2023-04-15T09:47:36;7.50;;;5.40;;
6356;SDS011;3211;53.452;-2.264;2023-04-15T09:50:03;6.20;;;5.10;;
6356;SDS011;3211;53.452;-2.264;2023-04-15T09:52:31;6.40;;;4.97;;
6356;SDS011;3211;53.452;-2.264;2023-04-15T09:54:58;6.13;;;5.23;;
6356;SDS011;3211;53.452;-2.264;2023-04-15T09:57:31;6.03;;;5.37;;
6356;SDS011;3211;53.452;-2.264;2023-04-15T10:00:00;8.43;;;4.60;;
6356;SDS011;3211;53.452;-2.264;2023-04-15T10:02:29;8.63;;;4.37;;
6356;SDS011;3211;53.452;-2.264;2023-04-15T10:04:57;6.87;;;5.00;;
6356;SDS011;3211;53.452;-2.264;2023-04-15T10:07:24;6.40;;;4.73;;
6356;SDS011;3211;53.452;-2.264;2023-04-15T10:09:52;8.77;;;4.97;;
6356;SDS011;3211;53.452;-2.264;2023-04-15T10:12:20;7.40;;;4.37;;
6356;SDS011;3211;53.452;-2.264;2023-04-15T10:14:49;4.00;;;3.60;;
6356;SDS011;3211;53.452;-2.264;2023-04-15T10:17:22;6.23;;;3.00;;
6356;SDS011;3211;53.452;-2.264;2023-04-15T10:19:53;4.37;;;3.70;;
6356;SDS011;3211;53.452;-2.264;2023-04-15T10:22:20;4.57;;;3.17;;
6356;SDS011;3211;53.452;-2.264;2023-04-15T10:24:48;4.33;;;3.10;;
6356;SDS011;3211;53.452;-2.264;2023-04-15T10:27:16;5.13;;;2.90;;
6356;SDS011;3211;53.452;-2.264;2023-04-15T10:29:44;3.30;;;3.00;;
6356;SDS011;3211;53.452;-2.264;2023-04-15T10:32:20;6.37;;;3.07;;
6356;SDS011;3211;53.452;-2.264;2023-04-15T10:34:49;4.20;;;2.80;;
6356;SDS011;3211;53.452;-2.264;2023-04-15T10:37:19;4.73;;;2.93;;
6356;SDS011;3211;53.452;-2.264;2023-04-15T10:39:47;2.53;;;2.33;;
6356;SDS011;3211;53.452;-2.264;2023-04-15T10:42:15;3.00;;;2.57;;
6356;SDS011;3211;53.452;-2.264;2023-04-15T10:44:43;3.20;;;2.30;;
6356;SDS011;3211;53.452;-2.264;2023-04-15T10:47:12;4.30;;;3.03;;
6356;SDS011;3211;53.452;-2.264;2023-04-15T10:49:43;4.90;;;2.50;;
6356;SDS011;3211;53.452;-2.264;2023-04-15T10:52:15;4.53;;;2.63;;
6356;SDS011;3211;53.452;-2.264;2023-04-15T10:54:43;4.00;;;2.80;;
6356;SDS011;3211;53.452;-2.264;2023-04-15T10:57:15;8.70;;;2.60;;
6356;SDS011;3211;53.452;-2.264;2023-04-15T11:00:00;2.83;;;2.30;;
6356;SDS011;3211;53.452;-2.264;2023-04-15T11:02:39;4.30;;;2.67;;
6356;SDS011;3211;53.452;-2.264;2023-04-15T11:05:07;3.80;;;2.97;;
6356;SDS011;3211;53.452;-2.264;2023-04-15T11:07:55;4.20;;;2.77;;
6356;SDS011;3211;53.452;-2.264;2023-04-15T11:13:19;3.30;;;2.60;;
6356;SDS011;3211;53.452;-2.264;2023-04-15T11:15:47;4.30;;;2.47;;
6356;SDS011;3211;53.452;-2.264;2023-04-15T11:18:16;2.70;;;2.30;;
6356;SDS011;3211;53.452;-2.264;2023-04-15T11:20:44;3.97;;;2.30;;
6356;SDS011;3211;53.452;-2.264;2023-04-15T11:23:14;3.20;;;2.70;;
6356;SDS011;3211;53.452;-2.264;2023-04-15T11:25:43;3.43;;;2.70;;
6356;SDS011;3211;53.452;-2.264;2023-04-15T11:28:11;5.87;;;3.13;;
6356;SDS011;3211;53.452;-2.264;2023-04-15T11:30:39;4.67;;;2.27;;
6356;SDS011;3211;53.452;-2.264;2023-04-15T11:33:08;4.70;;;2.80;;
6356;SDS011;3211;53.452;-2.264;2023-04-15T11:35:38;2.50;;;2.20;;
6356;SDS011;3211;53.452;-2.264;2023-04-15T11:38:07;5.53;;;2.63;;
6356;SDS011;3211;53.452;-2.264;2023-04-15T11:40:37;3.67;;;2.50;;
6356;SDS011;3211;53.452;-2.264;2023-04-15T11:43:05;3.37;;;2.53;;
6356;SDS011;3211;53.452;-2.264;2023-04-15T11:45:33;5.40;;;2.73;;
6356;SDS011;3211;53.452;-2.264;2023-04-15T11:48:04;5.00;;;2.67;;
6356;SDS011;3211;53.452;-2.264;2023-04-15T11:50:32;2.87;;;2.67;;
6356;SDS011;3211;53.452;-2.264;2023-04-15T11:53:00;3.07;;;2.50;;
6356;SDS011;3211;53.452;-2.264;2023-04-15T11:55:28;3.80;;;2.70;;
6356;SDS011;3211;53.452;-2.264;2023-04-15T11:58:08;3.33;;;2.10;;
6356;SDS011;3211;53.452;-2.264;2023-04-15T12:00:37;2.60;;;2.30;;
6356;SDS011;3211;53.452;-2.264;2023-04-15T12:03:11;6.77;;;2.53;;
6356;SDS011;3211;53.452;-2.264;2023-04-15T12:08:57;3.93;;;2.33;;
6356;SDS011;3211;53.452;-2.264;2023-04-15T12:11:27;3.63;;;2.00;;
6356;SDS011;3211;53.452;-2.264;2023-04-15T12:14:01;3.07;;;2.30;;
6356;SDS011;3211;53.452;-2.264;2023-04-15T12:16:30;3.83;;;2.70;;
6356;SDS011;3211;53.452;-2.264;2023-04-15T12:19:00;3.97;;;3.03;;
6356;SDS011;3211;53.452;-2.264;2023-04-15T12:21:32;5.63;;;3.60;;
6356;SDS011;3211;53.452;-2.264;2023-04-15T12:24:00;5.13;;;2.63;;
6356;SDS011;3211;53.452;-2.264;2023-04-15T12:26:29;4.83;;;2.50;;
6356;SDS011;3211;53.452;-2.264;2023-04-15T12:29:01;7.90;;;2.97;;
6356;SDS011;3211;53.452;-2.264;2023-04-15T12:31:28;2.93;;;2.30;;
6356;SDS011;3211;53.452;-2.264;2023-04-15T12:33:56;4.20;;;1.93;;
6356;SDS011;3211;53.452;-2.264;2023-04-15T12:36:23;5.40;;;2.20;;
6356;SDS011;3211;53.452;-2.264;2023-04-15T12:38:50;2.50;;;2.30;;
6356;SDS011;3211;53.452;-2.264;2023-04-15T12:41:18;4.60;;;2.60;;
6356;SDS011;3211;53.452;-2.264;2023-04-15T12:43:45;3.00;;;2.10;;
6356;SDS011;3211;53.452;-2.264;2023-04-15T12:46:14;3.63;;;2.30;;
6356;SDS011;3211;53.452;-2.264;2023-04-15T12:48:41;4.23;;;2.60;;
6356;SDS011;3211;53.452;-2.264;2023-04-15T12:51:08;6.90;;;3.23;;
6356;SDS011;3211;53.452;-2.264;2023-04-15T12:53:35;4.63;;;2.80;;
6356;SDS011;3211;53.452;-2.264;2023-04-15T12:56:02;3.03;;;2.77;;
6356;SDS011;3211;53.452;-2.264;2023-04-15T12:58:30;3.07;;;2.30;;
6356;SDS011;3211;53.452;-2.264;2023-04-15T13:00:57;4.50;;;2.83;;
6356;SDS011;3211;53.452;-2.264;2023-04-15T13:03:26;3.37;;;3.07;;
6356;SDS011;3211;53.452;-2.264;2023-04-15T13:05:52;4.13;;;2.50;;
6356;SDS011;3211;53.452;-2.264;2023-04-15T13:08:20;5.63;;;2.60;;
6356;SDS011;3211;53.452;-2.264;2023-04-15T13:10:46;2.70;;;2.40;;
6356;SDS011;3211;53.452;-2.264;2023-04-15T13:13:13;5.97;;;2.40;;
6356;SDS011;3211;53.452;-2.264;2023-04-15T13:15:40;2.67;;;2.27;;
6356;SDS011;3211;53.452;-2.264;2023-04-15T13:18:09;3.10;;;2.63;;
6356;SDS011;3211;53.452;-2.264;2023-04-15T13:20:38;3.73;;;2.60;;
6356;SDS011;3211;53.452;-2.264;2023-04-15T13:23:06;4.70;;;2.57;;
6356;SDS011;3211;53.452;-2.264;2023-04-15T13:25:33;2.90;;;2.43;;
6356;SDS011;3211;53.452;-2.264;2023-04-15T13:28:00;2.87;;;2.13;;
6356;SDS011;3211;53.452;-2.264;2023-04-15T13:30:27;3.27;;;2.33;;
6356;SDS011;3211;53.452;-2.264;2023-04-15T13:32:54;3.87;;;2.80;;
6356;SDS011;3211;53.452;-2.264;2023-04-15T13:35:21;4.27;;;2.30;;
6356;SDS011;3211;53.452;-2.264;2023-04-15T13:37:49;2.67;;;2.30;;
6356;SDS011;3211;53.452;-2.264;2023-04-15T13:40:18;4.17;;;2.70;;
6356;SDS011;3211;53.452;-2.264;2023-04-15T13:42:45;3.47;;;2.50;;
6356;SDS011;3211;53.452;-2.264;2023-04-15T13:45:12;2.90;;;2.40;;
6356;SDS011;3211;53.452;-2.264;2023-04-15T13:47:40;2.57;;;2.03;;
6356;SDS011;3211;53.452;-2.264;2023-04-15T13:50:07;2.57;;;2.37;;
6356;SDS011;3211;53.452;-2.264;2023-04-15T13:52:35;4.10;;;2.50;;
6356;SDS011;3211;53.452;-2.264;2023-04-15T13:55:03;2.60;;;2.40;;
6356;SDS011;3211;53.452;-2.264;2023-04-15T13:57:31;4.50;;;1.97;;
6356;SDS011;3211;53.452;-2.264;2023-04-15T13:59:58;3.30;;;2.20;;
6356;SDS011;3211;53.452;-2.264;2023-04-15T14:02:25;4.60;;;2.33;;
6356;SDS011;3211;53.452;-2.264;2023-04-15T14:04:52;2.00;;;1.90;;
6356;SDS011;3211;53.452;-2.264;2023-04-15T14:07:19;3.60;;;2.30;;
6356;SDS011;3211;53.452;-2.264;2023-04-15T14:09:46;4.03;;;2.47;;
6356;SDS011;3211;53.452;-2.264;2023-04-15T14:12:14;3.47;;;1.90;;
6356;SDS011;3211;53.452;-2.264;2023-04-15T14:14:41;3.63;;;2.13;;
6356;SDS011;3211;53.452;-2.264;2023-04-15T14:17:08;3.80;;;2.20;;
6356;SDS011;3211;53.452;-2.264;2023-04-15T14:19:35;2.57;;;1.80;;
6356;SDS011;3211;53.452;-2.264;2023-04-15T14:22:02;2.87;;;2.20;;
6356;SDS011;3211;53.452;-2.264;2023-04-15T14:24:29;3.07;;;2.00;;
6356;SDS011;3211;53.452;-2.264;2023-04-15T14:26:57;3.10;;;2.40;;
6356;SDS011;3211;53.452;-2.264;2023-04-15T14:29:25;2.93;;;1.73;;
6356;SDS011;3211;53.452;-2.264;2023-04-15T14:31:52;5.30;;;2.10;;
6356;SDS011;3211;53.452;-2.264;2023-04-15T14:34:21;3.30;;;2.10;;
6356;SDS011;3211;53.452;-2.264;2023-04-15T14:36:49;4.57;;;2.10;;
6356;SDS011;3211;53.452;-2.264;2023-04-15T14:39:16;2.27;;;2.07;;
6356;SDS011;3211;53.452;-2.264;2023-04-15T14:41:43;2.17;;;1.90;;
6356;SDS011;3211;53.452;-2.264;2023-04-15T14:44:10;4.23;;;1.97;;
6356;SDS011;3211;53.452;-2.264;2023-04-15T14:46:38;3.67;;;1.83;;
6356;SDS011;3211;53.452;-2.264;2023-04-15T14:49:05;2.30;;;1.90;;
6356;SDS011;3211;53.452;-2.264;2023-04-15T14:51:33;2.73;;;2.20;;
6356;SDS011;3211;53.452;-2.264;2023-04-15T14:54:00;3.20;;;1.90;;
6356;SDS011;3211;53.452;-2.264;2023-04-15T14:56:27;2.50;;;2.00;;
6356;SDS011;3211;53.452;-2.264;2023-04-15T14:58:54;3.27;;;2.13;;
6356;SDS011;3211;53.452;-2.264;2023-04-15T15:01:20;2.73;;;2.23;;
6356;SDS011;3211;53.452;-2.264;2023-04-15T15:03:49;2.57;;;2.37;;